sensor_id;sensor_type;location;lat;lon;timestamp;P1;durP1;ratioP1;P2;durP2;ratioP2
19341;SDS011;9807;48.258;12.690;2024-03-25T00:00:32;3.60;;;1.63;;
19341;SDS011;9807;48.258;12.690;2024-03-25T00:02:57;3.87;;;1.90;;
19341;SDS011;9807;48.258;12.690;2024-03-25T00:05:23;3.83;;;1.90;;
19341;SDS011;9807;48.258;12.690;2024-03-25T00:07:50;3.67;;;1.63;;
19341;SDS011;9807;48.258;12.690;2024-03-25T00:10:16;3.90;;;2.00;;
19341;SDS011;9807;48.258;12.690;2024-03-25T00:12:42;2.37;;;1.80;;
19341;SDS011;9807;48.258;12.690;2024-03-25T00:15:08;4.50;;;2.00;;
19341;SDS011;9807;48.258;12.690;2024-03-25T00:17:35;3.40;;;2.07;;
19341;SDS011;9807;48.258;12.690;2024-03-25T00:20:01;4.47;;;1.93;;
19341;SDS011;9807;48.258;12.690;2024-03-25T00:22:26;4.03;;;1.90;;
19341;SDS011;9807;48.258;12.690;2024-03-25T00:24:52;3.87;;;2.13;;
19341;SDS011;9807;48.258;12.690;2024-03-25T00:27:18;3.03;;;1.90;;
19341;SDS011;9807;48.258;12.690;2024-03-25T00:29:44;4.10;;;1.97;;
19341;SDS011;9807;48.258;12.690;2024-03-25T00:32:12;5.27;;;1.90;;
19341;SDS011;9807;48.258;12.690;2024-03-25T00:34:40;4.43;;;2.00;;
19341;SDS011;9807;48.258;12.690;2024-03-25T00:37:05;5.93;;;1.80;;
19341;SDS011;9807;48.258;12.690;2024-03-25T00:39:31;5.03;;;2.10;;
19341;SDS011;9807;48.258;12.690;2024-03-25T00:41:57;3.10;;;2.10;;
19341;SDS011;9807;48.258;12.690;2024-03-25T00:44:23;3.63;;;1.87;;
19341;SDS011;9807;48.258;12.690;2024-03-25T00:46:49;2.23;;;1.73;;
19341;SDS011;9807;48.258;12.690;2024-03-25T00:49:15;3.00;;;1.70;;
19341;SDS011;9807;48.258;12.690;2024-03-25T00:51:41;4.43;;;1.90;;
19341;SDS011;9807;48.258;12.690;2024-03-25T00:54:06;9.03;;;2.10;;
19341;SDS011;9807;48.258;12.690;2024-03-25T00:56:32;3.47;;;1.70;;
19341;SDS011;9807;48.258;12.690;2024-03-25T00:59:01;3.93;;;2.00;;
19341;SDS011;9807;48.258;12.690;2024-03-25T01:01:31;5.57;;;1.70;;
19341;SDS011;9807;48.258;12.690;2024-03-25T01:03:58;2.87;;;1.83;;
19341;SDS011;9807;48.258;12.690;2024-03-25T01:06:24;3.70;;;2.00;;
19341;SDS011;9807;48.258;12.690;2024-03-25T01:08:50;2.60;;;1.93;;
19341;SDS011;9807;48.258;12.690;2024-03-25T01:11:16;2.13;;;1.60;;
19341;SDS011;9807;48.258;12.690;2024-03-25T01:13:42;5.63;;;2.07;;
19341;SDS011;9807;48.258;12.690;2024-03-25T01:16:08;2.63;;;1.90;;
19341;SDS011;9807;48.258;12.690;2024-03-25T01:18:36;5.07;;;2.00;;
19341;SDS011;9807;48.258;12.690;2024-03-25T01:21:02;3.63;;;1.90;;
19341;SDS011;9807;48.258;12.690;2024-03-25T01:23:28;4.20;;;2.10;;
19341;SDS011;9807;48.258;12.690;2024-03-25T01:25:54;3.33;;;1.80;;
19341;SDS011;9807;48.258;12.690;2024-03-25T01:28:19;3.63;;;1.90;;
19341;SDS011;9807;48.258;12.690;2024-03-25T01:30:45;3.10;;;1.90;;
19341;SDS011;9807;48.258;12.690;2024-03-25T01:33:11;6.63;;;2.13;;
19341;SDS011;9807;48.258;12.690;2024-03-25T01:35:36;1.93;;;1.67;;
19341;SDS011;9807;48.258;12.690;2024-03-25T01:38:02;4.53;;;1.80;;
19341;SDS011;9807;48.258;12.690;2024-03-25T01:40:28;2.50;;;1.90;;
19341;SDS011;9807;48.258;12.690;2024-03-25T01:42:55;4.80;;;2.27;;
19341;SDS011;9807;48.258;12.690;2024-03-25T01:45:21;6.00;;;2.37;;
19341;SDS011;9807;48.258;12.690;2024-03-25T01:47:47;5.03;;;1.90;;
19341;SDS011;9807;48.258;12.690;2024-03-25T01:50:13;3.80;;;2.17;;
19341;SDS011;9807;48.258;12.690;2024-03-25T01:52:39;4.33;;;1.87;;
19341;SDS011;9807;48.258;12.690;2024-03-25T01:55:06;3.60;;;2.00;;
19341;SDS011;9807;48.258;12.690;2024-03-25T01:57:34;2.97;;;2.07;;
19341;SDS011;9807;48.258;12.690;2024-03-25T02:00:02;3.60;;;1.97;;
19341;SDS011;9807;48.258;12.690;2024-03-25T02:02:29;2.87;;;1.80;;
19341;SDS011;9807;48.258;12.690;2024-03-25T02:04:55;3.53;;;2.10;;
19341;SDS011;9807;48.258;12.690;2024-03-25T02:07:22;2.47;;;2.00;;
19341;SDS011;9807;48.258;12.690;2024-03-25T02:09:50;4.03;;;2.13;;
19341;SDS011;9807;48.258;12.690;2024-03-25T02:12:17;5.03;;;2.20;;
19341;SDS011;9807;48.258;12.690;2024-03-25T02:14:43;3.93;;;2.20;;
19341;SDS011;9807;48.258;12.690;2024-03-25T02:17:09;5.70;;;1.87;;
19341;SDS011;9807;48.258;12.690;2024-03-25T02:19:37;2.80;;;2.10;;
19341;SDS011;9807;48.258;12.690;2024-03-25T02:22:04;3.70;;;1.80;;
19341;SDS011;9807;48.258;12.690;2024-03-25T02:24:29;3.67;;;2.10;;
19341;SDS011;9807;48.258;12.690;2024-03-25T02:26:56;3.10;;;1.70;;
19341;SDS011;9807;48.258;12.690;2024-03-25T02:29:22;5.40;;;2.10;;
19341;SDS011;9807;48.258;12.690;2024-03-25T02:31:47;4.33;;;2.10;;
19341;SDS011;9807;48.258;12.690;2024-03-25T02:34:13;6.10;;;2.13;;
19341;SDS011;9807;48.258;12.690;2024-03-25T02:36:39;4.97;;;2.07;;
19341;SDS011;9807;48.258;12.690;2024-03-25T02:39:05;4.03;;;1.90;;
19341;SDS011;9807;48.258;12.690;2024-03-25T02:41:31;10.27;;;2.20;;
19341;SDS011;9807;48.258;12.690;2024-03-25T02:43:59;4.97;;;2.07;;
19341;SDS011;9807;48.258;12.690;2024-03-25T02:46:25;4.07;;;1.90;;
19341;SDS011;9807;48.258;12.690;2024-03-25T02:48:50;5.43;;;2.17;;
19341;SDS011;9807;48.258;12.690;2024-03-25T02:51:16;2.93;;;1.93;;
19341;SDS011;9807;48.258;12.690;2024-03-25T02:53:42;5.03;;;2.10;;
19341;SDS011;9807;48.258;12.690;2024-03-25T02:56:07;4.33;;;2.07;;
19341;SDS011;9807;48.258;12.690;2024-03-25T02:58:34;4.70;;;2.30;;
19341;SDS011;9807;48.258;12.690;2024-03-25T03:01:00;4.47;;;1.90;;
19341;SDS011;9807;48.258;12.690;2024-03-25T03:03:25;3.37;;;2.10;;
19341;SDS011;9807;48.258;12.690;2024-03-25T03:05:51;3.57;;;2.07;;
19341;SDS011;9807;48.258;12.690;2024-03-25T03:08:17;5.70;;;2.20;;
19341;SDS011;9807;48.258;12.690;2024-03-25T03:10:45;3.23;;;2.00;;
19341;SDS011;9807;48.258;12.690;2024-03-25T03:13:11;4.70;;;2.17;;
19341;SDS011;9807;48.258;12.690;2024-03-25T03:15:36;3.70;;;2.10;;
19341;SDS011;9807;48.258;12.690;2024-03-25T03:18:02;4.87;;;2.07;;
19341;SDS011;9807;48.258;12.690;2024-03-25T03:20:28;3.83;;;1.90;;
19341;SDS011;9807;48.258;12.690;2024-03-25T03:22:54;3.47;;;2.10;;
19341;SDS011;9807;48.258;12.690;2024-03-25T03:25:19;5.13;;;2.37;;
19341;SDS011;9807;48.258;12.690;2024-03-25T03:27:45;5.83;;;2.30;;
19341;SDS011;9807;48.258;12.690;2024-03-25T03:30:11;2.33;;;1.87;;
19341;SDS011;9807;48.258;12.690;2024-03-25T03:32:36;2.53;;;1.80;;
19341;SDS011;9807;48.258;12.690;2024-03-25T03:35:02;3.73;;;1.90;;
19341;SDS011;9807;48.258;12.690;2024-03-25T03:37:28;3.10;;;2.30;;
19341;SDS011;9807;48.258;12.690;2024-03-25T03:39:53;3.50;;;1.97;;
19341;SDS011;9807;48.258;12.690;2024-03-25T03:42:19;4.17;;;2.10;;
19341;SDS011;9807;48.258;12.690;2024-03-25T03:44:44;6.40;;;2.30;;
19341;SDS011;9807;48.258;12.690;2024-03-25T03:47:10;4.67;;;2.10;;
19341;SDS011;9807;48.258;12.690;2024-03-25T03:49:36;2.97;;;2.17;;
19341;SDS011;9807;48.258;12.690;2024-03-25T03:52:01;4.20;;;2.00;;
19341;SDS011;9807;48.258;12.690;2024-03-25T03:54:27;4.47;;;2.17;;
19341;SDS011;9807;48.258;12.690;2024-03-25T03:56:53;2.87;;;2.10;;
19341;SDS011;9807;48.258;12.690;2024-03-25T03:59:19;5.33;;;2.13;;
19341;SDS011;9807;48.258;12.690;2024-03-25T04:01:44;3.70;;;2.07;;
19341;SDS011;9807;48.258;12.690;2024-03-25T04:04:10;6.10;;;2.30;;
19341;SDS011;9807;48.258;12.690;2024-03-25T04:06:35;5.33;;;2.50;;
19341;SDS011;9807;48.258;12.690;2024-03-25T04:09:01;3.77;;;2.10;;
19341;SDS011;9807;48.258;12.690;2024-03-25T04:11:27;5.73;;;2.10;;
19341;SDS011;9807;48.258;12.690;2024-03-25T04:13:53;5.73;;;2.40;;
19341;SDS011;9807;48.258;12.690;2024-03-25T04:16:18;3.97;;;2.20;;
19341;SDS011;9807;48.258;12.690;2024-03-25T04:18:44;3.80;;;2.20;;
19341;SDS011;9807;48.258;12.690;2024-03-25T04:21:12;3.77;;;2.07;;
19341;SDS011;9807;48.258;12.690;2024-03-25T04:23:38;4.83;;;2.10;;
19341;SDS011;9807;48.258;12.690;2024-03-25T04:26:06;5.13;;;2.10;;
19341;SDS011;9807;48.258;12.690;2024-03-25T04:28:34;3.63;;;2.00;;
19341;SDS011;9807;48.258;12.690;2024-03-25T04:31:00;4.27;;;1.90;;
19341;SDS011;9807;48.258;12.690;2024-03-25T04:33:26;4.27;;;2.20;;
19341;SDS011;9807;48.258;12.690;2024-03-25T04:35:52;2.93;;;2.13;;
19341;SDS011;9807;48.258;12.690;2024-03-25T04:38:18;4.00;;;2.00;;
19341;SDS011;9807;48.258;12.690;2024-03-25T04:40:44;5.23;;;2.03;;
19341;SDS011;9807;48.258;12.690;2024-03-25T04:43:10;6.07;;;2.07;;
19341;SDS011;9807;48.258;12.690;2024-03-25T04:45:35;5.47;;;1.90;;
19341;SDS011;9807;48.258;12.690;2024-03-25T04:48:01;5.40;;;1.90;;
19341;SDS011;9807;48.258;12.690;2024-03-25T04:50:27;2.77;;;1.77;;
19341;SDS011;9807;48.258;12.690;2024-03-25T04:52:53;4.00;;;2.17;;
19341;SDS011;9807;48.258;12.690;2024-03-25T04:55:19;3.27;;;2.03;;
19341;SDS011;9807;48.258;12.690;2024-03-25T04:57:44;8.00;;;2.17;;
19341;SDS011;9807;48.258;12.690;2024-03-25T05:00:10;4.37;;;1.90;;
19341;SDS011;9807;48.258;12.690;2024-03-25T05:02:37;4.60;;;2.10;;
19341;SDS011;9807;48.258;12.690;2024-03-25T05:05:03;3.53;;;2.20;;
19341;SDS011;9807;48.258;12.690;2024-03-25T05:07:29;3.17;;;2.03;;
19341;SDS011;9807;48.258;12.690;2024-03-25T05:09:55;5.63;;;2.10;;
19341;SDS011;9807;48.258;12.690;2024-03-25T05:12:21;3.40;;;2.03;;
19341;SDS011;9807;48.258;12.690;2024-03-25T05:14:46;5.00;;;2.30;;
19341;SDS011;9807;48.258;12.690;2024-03-25T05:17:12;4.37;;;2.30;;
19341;SDS011;9807;48.258;12.690;2024-03-25T05:19:38;6.87;;;2.23;;
19341;SDS011;9807;48.258;12.690;2024-03-25T05:22:03;5.20;;;1.93;;
19341;SDS011;9807;48.258;12.690;2024-03-25T05:24:29;4.30;;;2.40;;
19341;SDS011;9807;48.258;12.690;2024-03-25T05:26:55;3.03;;;2.07;;
19341;SDS011;9807;48.258;12.690;2024-03-25T05:29:20;2.90;;;1.93;;
19341;SDS011;9807;48.258;12.690;2024-03-25T05:31:59;8.97;;;2.73;;
19341;SDS011;9807;48.258;12.690;2024-03-25T05:34:26;5.67;;;2.30;;
19341;SDS011;9807;48.258;12.690;2024-03-25T05:36:53;3.70;;;2.40;;
19341;SDS011;9807;48.258;12.690;2024-03-25T05:39:19;5.27;;;2.37;;
19341;SDS011;9807;48.258;12.690;2024-03-25T05:41:45;4.57;;;2.40;;
19341;SDS011;9807;48.258;12.690;2024-03-25T05:44:11;10.70;;;2.47;;
19341;SDS011;9807;48.258;12.690;2024-03-25T05:46:38;6.67;;;2.13;;
19341;SDS011;9807;48.258;12.690;2024-03-25T05:49:04;4.47;;;2.47;;
19341;SDS011;9807;48.258;12.690;2024-03-25T05:51:30;4.93;;;2.10;;
19341;SDS011;9807;48.258;12.690;2024-03-25T05:53:58;5.77;;;2.40;;
19341;SDS011;9807;48.258;12.690;2024-03-25T05:56:24;8.27;;;2.40;;
19341;SDS011;9807;48.258;12.690;2024-03-25T05:58:55;3.77;;;2.33;;
19341;SDS011;9807;48.258;12.690;2024-03-25T06:01:25;6.33;;;2.57;;
19341;SDS011;9807;48.258;12.690;2024-03-25T06:03:51;6.00;;;2.70;;
19341;SDS011;9807;48.258;12.690;2024-03-25T06:06:17;6.37;;;2.73;;
19341;SDS011;9807;48.258;12.690;2024-03-25T06:08:42;13.13;;;3.90;;
19341;SDS011;9807;48.258;12.690;2024-03-25T06:11:09;6.33;;;3.40;;
19341;SDS011;9807;48.258;12.690;2024-03-25T06:13:35;5.77;;;3.40;;
19341;SDS011;9807;48.258;12.690;2024-03-25T06:16:01;6.93;;;2.93;;
19341;SDS011;9807;48.258;12.690;2024-03-25T06:18:27;5.20;;;2.67;;
19341;SDS011;9807;48.258;12.690;2024-03-25T06:20:53;9.87;;;2.90;;
19341;SDS011;9807;48.258;12.690;2024-03-25T06:23:22;6.23;;;2.87;;
19341;SDS011;9807;48.258;12.690;2024-03-25T06:25:49;5.03;;;2.70;;
19341;SDS011;9807;48.258;12.690;2024-03-25T06:28:15;4.13;;;2.30;;
19341;SDS011;9807;48.258;12.690;2024-03-25T06:30:41;5.93;;;2.50;;
19341;SDS011;9807;48.258;12.690;2024-03-25T06:33:25;3.40;;;2.23;;
19341;SDS011;9807;48.258;12.690;2024-03-25T06:36:12;4.13;;;2.37;;
19341;SDS011;9807;48.258;12.690;2024-03-25T06:38:38;3.50;;;2.30;;
19341;SDS011;9807;48.258;12.690;2024-03-25T06:41:03;3.33;;;2.40;;
19341;SDS011;9807;48.258;12.690;2024-03-25T06:43:30;3.07;;;2.23;;
19341;SDS011;9807;48.258;12.690;2024-03-25T06:45:55;8.97;;;2.73;;
19341;SDS011;9807;48.258;12.690;2024-03-25T06:48:21;4.80;;;2.33;;
19341;SDS011;9807;48.258;12.690;2024-03-25T06:50:54;9.00;;;2.80;;
19341;SDS011;9807;48.258;12.690;2024-03-25T06:53:23;7.73;;;3.40;;
19341;SDS011;9807;48.258;12.690;2024-03-25T06:58:19;8.23;;;2.60;;
19341;SDS011;9807;48.258;12.690;2024-03-25T07:00:46;7.57;;;3.00;;
19341;SDS011;9807;48.258;12.690;2024-03-25T07:03:13;6.73;;;2.70;;
19341;SDS011;9807;48.258;12.690;2024-03-25T07:05:39;8.10;;;2.77;;
19341;SDS011;9807;48.258;12.690;2024-03-25T07:08:05;8.37;;;2.60;;
19341;SDS011;9807;48.258;12.690;2024-03-25T07:10:31;4.87;;;2.63;;
19341;SDS011;9807;48.258;12.690;2024-03-25T07:12:56;4.63;;;2.47;;
19341;SDS011;9807;48.258;12.690;2024-03-25T07:15:22;3.97;;;2.53;;
19341;SDS011;9807;48.258;12.690;2024-03-25T07:17:48;5.77;;;2.40;;
19341;SDS011;9807;48.258;12.690;2024-03-25T07:20:14;9.77;;;2.57;;
19341;SDS011;9807;48.258;12.690;2024-03-25T07:22:39;6.07;;;2.60;;
19341;SDS011;9807;48.258;12.690;2024-03-25T07:25:05;4.50;;;2.50;;
19341;SDS011;9807;48.258;12.690;2024-03-25T07:27:31;5.13;;;2.40;;
19341;SDS011;9807;48.258;12.690;2024-03-25T07:29:57;7.53;;;3.30;;
19341;SDS011;9807;48.258;12.690;2024-03-25T07:32:22;9.13;;;2.80;;
19341;SDS011;9807;48.258;12.690;2024-03-25T07:34:48;6.20;;;2.80;;
19341;SDS011;9807;48.258;12.690;2024-03-25T07:37:14;7.63;;;2.93;;
19341;SDS011;9807;48.258;12.690;2024-03-25T07:39:39;6.07;;;2.83;;
19341;SDS011;9807;48.258;12.690;2024-03-25T07:42:05;9.33;;;2.63;;
19341;SDS011;9807;48.258;12.690;2024-03-25T07:44:31;6.70;;;2.80;;
19341;SDS011;9807;48.258;12.690;2024-03-25T07:46:57;9.43;;;2.73;;
19341;SDS011;9807;48.258;12.690;2024-03-25T07:49:23;7.90;;;3.00;;
19341;SDS011;9807;48.258;12.690;2024-03-25T07:51:48;7.63;;;3.10;;
19341;SDS011;9807;48.258;12.690;2024-03-25T07:54:14;6.77;;;2.80;;
19341;SDS011;9807;48.258;12.690;2024-03-25T07:56:41;6.70;;;3.10;;
19341;SDS011;9807;48.258;12.690;2024-03-25T07:59:07;8.30;;;2.90;;
19341;SDS011;9807;48.258;12.690;2024-03-25T08:01:33;9.80;;;2.90;;
19341;SDS011;9807;48.258;12.690;2024-03-25T08:03:58;8.87;;;3.67;;
19341;SDS011;9807;48.258;12.690;2024-03-25T08:06:24;8.83;;;5.13;;
19341;SDS011;9807;48.258;12.690;2024-03-25T08:08:50;12.63;;;4.07;;
19341;SDS011;9807;48.258;12.690;2024-03-25T08:11:15;8.23;;;3.57;;
19341;SDS011;9807;48.258;12.690;2024-03-25T08:13:41;9.63;;;3.57;;
19341;SDS011;9807;48.258;12.690;2024-03-25T08:16:06;10.60;;;4.73;;
19341;SDS011;9807;48.258;12.690;2024-03-25T08:18:32;9.83;;;4.27;;
19341;SDS011;9807;48.258;12.690;2024-03-25T08:20:58;11.13;;;4.07;;
19341;SDS011;9807;48.258;12.690;2024-03-25T08:23:24;11.60;;;4.10;;
19341;SDS011;9807;48.258;12.690;2024-03-25T08:25:50;7.07;;;3.47;;
19341;SDS011;9807;48.258;12.690;2024-03-25T08:28:16;8.87;;;3.80;;
19341;SDS011;9807;48.258;12.690;2024-03-25T08:30:41;5.90;;;3.63;;
19341;SDS011;9807;48.258;12.690;2024-03-25T08:33:07;8.77;;;3.77;;
19341;SDS011;9807;48.258;12.690;2024-03-25T08:35:33;12.53;;;4.70;;
19341;SDS011;9807;48.258;12.690;2024-03-25T08:37:58;7.50;;;3.30;;
19341;SDS011;9807;48.258;12.690;2024-03-25T08:40:24;7.70;;;3.50;;
19341;SDS011;9807;48.258;12.690;2024-03-25T08:42:50;9.40;;;3.70;;
19341;SDS011;9807;48.258;12.690;2024-03-25T08:45:16;7.70;;;3.80;;
19341;SDS011;9807;48.258;12.690;2024-03-25T08:47:42;7.43;;;3.27;;
19341;SDS011;9807;48.258;12.690;2024-03-25T08:50:07;6.27;;;3.27;;
19341;SDS011;9807;48.258;12.690;2024-03-25T08:52:35;7.43;;;3.20;;
19341;SDS011;9807;48.258;12.690;2024-03-25T08:55:01;9.03;;;3.33;;
19341;SDS011;9807;48.258;12.690;2024-03-25T08:57:27;4.40;;;3.27;;
19341;SDS011;9807;48.258;12.690;2024-03-25T08:59:52;5.97;;;3.03;;
19341;SDS011;9807;48.258;12.690;2024-03-25T09:02:18;6.73;;;3.13;;
19341;SDS011;9807;48.258;12.690;2024-03-25T09:04:44;7.57;;;3.17;;
19341;SDS011;9807;48.258;12.690;2024-03-25T09:07:10;6.13;;;3.03;;
19341;SDS011;9807;48.258;12.690;2024-03-25T09:09:36;8.63;;;4.47;;
19341;SDS011;9807;48.258;12.690;2024-03-25T09:12:20;6.93;;;3.30;;
19341;SDS011;9807;48.258;12.690;2024-03-25T09:14:46;9.07;;;3.77;;
19341;SDS011;9807;48.258;12.690;2024-03-25T09:17:11;8.10;;;3.80;;
19341;SDS011;9807;48.258;12.690;2024-03-25T09:19:37;6.40;;;3.83;;
19341;SDS011;9807;48.258;12.690;2024-03-25T09:22:03;8.53;;;3.83;;
19341;SDS011;9807;48.258;12.690;2024-03-25T09:24:29;7.17;;;3.03;;
19341;SDS011;9807;48.258;12.690;2024-03-25T09:26:54;9.73;;;3.57;;
19341;SDS011;9807;48.258;12.690;2024-03-25T09:29:20;8.10;;;3.20;;
19341;SDS011;9807;48.258;12.690;2024-03-25T09:31:46;6.70;;;3.20;;
19341;SDS011;9807;48.258;12.690;2024-03-25T09:34:12;5.33;;;3.23;;
19341;SDS011;9807;48.258;12.690;2024-03-25T09:36:37;5.43;;;3.20;;
19341;SDS011;9807;48.258;12.690;2024-03-25T09:39:03;4.63;;;3.03;;
19341;SDS011;9807;48.258;12.690;2024-03-25T09:41:30;5.27;;;2.93;;
19341;SDS011;9807;48.258;12.690;2024-03-25T09:43:59;8.07;;;3.10;;
19341;SDS011;9807;48.258;12.690;2024-03-25T09:46:25;6.33;;;2.93;;
19341;SDS011;9807;48.258;12.690;2024-03-25T09:48:52;10.37;;;3.70;;
19341;SDS011;9807;48.258;12.690;2024-03-25T09:51:18;5.27;;;3.37;;
19341;SDS011;9807;48.258;12.690;2024-03-25T09:53:45;4.97;;;2.90;;
19341;SDS011;9807;48.258;12.690;2024-03-25T09:56:15;5.27;;;2.73;;
19341;SDS011;9807;48.258;12.690;2024-03-25T09:58:42;9.47;;;3.33;;
19341;SDS011;9807;48.258;12.690;2024-03-25T10:01:10;4.43;;;3.23;;
19341;SDS011;9807;48.258;12.690;2024-03-25T10:03:35;8.07;;;3.30;;
19341;SDS011;9807;48.258;12.690;2024-03-25T10:06:01;10.97;;;3.30;;
19341;SDS011;9807;48.258;12.690;2024-03-25T10:08:27;5.20;;;3.40;;
19341;SDS011;9807;48.258;12.690;2024-03-25T10:10:56;5.83;;;3.27;;
19341;SDS011;9807;48.258;12.690;2024-03-25T10:13:22;8.23;;;3.10;;
19341;SDS011;9807;48.258;12.690;2024-03-25T10:15:48;4.10;;;2.83;;
19341;SDS011;9807;48.258;12.690;2024-03-25T10:18:14;6.77;;;3.07;;
19341;SDS011;9807;48.258;12.690;2024-03-25T10:20:49;6.33;;;2.97;;
19341;SDS011;9807;48.258;12.690;2024-03-25T10:23:19;6.20;;;3.23;;
19341;SDS011;9807;48.258;12.690;2024-03-25T10:25:47;6.00;;;3.40;;
19341;SDS011;9807;48.258;12.690;2024-03-25T10:28:13;5.17;;;3.43;;
19341;SDS011;9807;48.258;12.690;2024-03-25T10:30:39;4.33;;;2.90;;
19341;SDS011;9807;48.258;12.690;2024-03-25T10:33:06;4.20;;;2.77;;
19341;SDS011;9807;48.258;12.690;2024-03-25T10:35:33;4.57;;;3.17;;
19341;SDS011;9807;48.258;12.690;2024-03-25T10:40:30;6.13;;;3.47;;
19341;SDS011;9807;48.258;12.690;2024-03-25T10:43:07;7.80;;;3.00;;
19341;SDS011;9807;48.258;12.690;2024-03-25T10:48:21;6.73;;;2.97;;
19341;SDS011;9807;48.258;12.690;2024-03-25T10:50:57;4.90;;;2.80;;
19341;SDS011;9807;48.258;12.690;2024-03-25T10:53:26;7.90;;;3.83;;
19341;SDS011;9807;48.258;12.690;2024-03-25T10:55:54;5.70;;;3.00;;
19341;SDS011;9807;48.258;12.690;2024-03-25T10:58:23;7.23;;;3.47;;
19341;SDS011;9807;48.258;12.690;2024-03-25T11:00:50;4.57;;;2.87;;
19341;SDS011;9807;48.258;12.690;2024-03-25T11:03:21;4.80;;;2.90;;
19341;SDS011;9807;48.258;12.690;2024-03-25T11:05:48;5.83;;;3.07;;
19341;SDS011;9807;48.258;12.690;2024-03-25T11:08:15;5.27;;;2.90;;
19341;SDS011;9807;48.258;12.690;2024-03-25T11:10:45;6.17;;;2.90;;
19341;SDS011;9807;48.258;12.690;2024-03-25T11:13:12;4.97;;;2.93;;
19341;SDS011;9807;48.258;12.690;2024-03-25T11:15:45;5.00;;;2.60;;
19341;SDS011;9807;48.258;12.690;2024-03-25T11:18:17;8.77;;;2.97;;
19341;SDS011;9807;48.258;12.690;2024-03-25T11:20:48;5.00;;;2.80;;
19341;SDS011;9807;48.258;12.690;2024-03-25T11:24:05;4.93;;;3.43;;
19341;SDS011;9807;48.258;12.690;2024-03-25T11:26:31;4.83;;;2.70;;
19341;SDS011;9807;48.258;12.690;2024-03-25T11:29:00;7.07;;;3.20;;
19341;SDS011;9807;48.258;12.690;2024-03-25T11:31:26;2.93;;;2.30;;
19341;SDS011;9807;48.258;12.690;2024-03-25T11:33:52;4.33;;;2.70;;
19341;SDS011;9807;48.258;12.690;2024-03-25T11:36:18;8.10;;;2.80;;
19341;SDS011;9807;48.258;12.690;2024-03-25T11:38:45;6.47;;;2.97;;
19341;SDS011;9807;48.258;12.690;2024-03-25T11:41:22;6.87;;;2.70;;
19341;SDS011;9807;48.258;12.690;2024-03-25T11:43:47;3.43;;;2.77;;
19341;SDS011;9807;48.258;12.690;2024-03-25T11:46:16;8.77;;;3.60;;
19341;SDS011;9807;48.258;12.690;2024-03-25T11:48:43;7.40;;;3.00;;
19341;SDS011;9807;48.258;12.690;2024-03-25T11:51:13;4.70;;;3.07;;
19341;SDS011;9807;48.258;12.690;2024-03-25T11:53:41;5.60;;;3.10;;
19341;SDS011;9807;48.258;12.690;2024-03-25T11:56:07;7.27;;;3.17;;
19341;SDS011;9807;48.258;12.690;2024-03-25T11:58:33;7.13;;;3.17;;
19341;SDS011;9807;48.258;12.690;2024-03-25T12:00:58;4.83;;;2.60;;
19341;SDS011;9807;48.258;12.690;2024-03-25T12:03:24;3.90;;;2.30;;
19341;SDS011;9807;48.258;12.690;2024-03-25T12:05:50;4.17;;;2.67;;
19341;SDS011;9807;48.258;12.690;2024-03-25T12:08:16;6.67;;;2.83;;
19341;SDS011;9807;48.258;12.690;2024-03-25T12:10:42;3.93;;;2.27;;
19341;SDS011;9807;48.258;12.690;2024-03-25T12:13:26;6.33;;;3.00;;
19341;SDS011;9807;48.258;12.690;2024-03-25T12:15:53;6.57;;;3.00;;
19341;SDS011;9807;48.258;12.690;2024-03-25T12:18:19;6.97;;;2.90;;
19341;SDS011;9807;48.258;12.690;2024-03-25T12:20:46;5.20;;;2.67;;
19341;SDS011;9807;48.258;12.690;2024-03-25T12:23:12;5.83;;;2.33;;
19341;SDS011;9807;48.258;12.690;2024-03-25T12:25:38;4.73;;;2.60;;
19341;SDS011;9807;48.258;12.690;2024-03-25T12:28:11;4.00;;;2.20;;
19341;SDS011;9807;48.258;12.690;2024-03-25T12:30:51;4.07;;;2.13;;
19341;SDS011;9807;48.258;12.690;2024-03-25T12:33:18;3.30;;;2.27;;
19341;SDS011;9807;48.258;12.690;2024-03-25T12:35:45;3.23;;;1.90;;
19341;SDS011;9807;48.258;12.690;2024-03-25T12:38:27;5.97;;;2.10;;
19341;SDS011;9807;48.258;12.690;2024-03-25T12:43:46;3.37;;;2.00;;
19341;SDS011;9807;48.258;12.690;2024-03-25T12:46:12;3.73;;;2.27;;
19341;SDS011;9807;48.258;12.690;2024-03-25T12:48:38;3.47;;;2.30;;
19341;SDS011;9807;48.258;12.690;2024-03-25T12:51:04;4.30;;;2.40;;
19341;SDS011;9807;48.258;12.690;2024-03-25T12:53:30;3.90;;;2.13;;
19341;SDS011;9807;48.258;12.690;2024-03-25T12:55:56;5.30;;;2.37;;
19341;SDS011;9807;48.258;12.690;2024-03-25T12:58:22;6.07;;;3.40;;
19341;SDS011;9807;48.258;12.690;2024-03-25T13:00:47;4.47;;;2.70;;
19341;SDS011;9807;48.258;12.690;2024-03-25T13:03:13;3.33;;;2.20;;
19341;SDS011;9807;48.258;12.690;2024-03-25T13:05:40;3.93;;;2.60;;
19341;SDS011;9807;48.258;12.690;2024-03-25T13:08:05;4.80;;;2.20;;
19341;SDS011;9807;48.258;12.690;2024-03-25T13:10:31;2.87;;;1.80;;
19341;SDS011;9807;48.258;12.690;2024-03-25T13:12:57;3.73;;;2.00;;
19341;SDS011;9807;48.258;12.690;2024-03-25T13:15:26;4.47;;;2.43;;
19341;SDS011;9807;48.258;12.690;2024-03-25T13:17:52;4.80;;;2.50;;
19341;SDS011;9807;48.258;12.690;2024-03-25T13:20:18;5.33;;;1.90;;
19341;SDS011;9807;48.258;12.690;2024-03-25T13:22:44;4.87;;;2.63;;
19341;SDS011;9807;48.258;12.690;2024-03-25T13:25:11;5.57;;;2.43;;
19341;SDS011;9807;48.258;12.690;2024-03-25T13:27:36;5.30;;;2.30;;
19341;SDS011;9807;48.258;12.690;2024-03-25T13:30:03;6.20;;;2.90;;
19341;SDS011;9807;48.258;12.690;2024-03-25T13:32:29;5.53;;;2.23;;
19341;SDS011;9807;48.258;12.690;2024-03-25T13:34:55;3.97;;;2.90;;
19341;SDS011;9807;48.258;12.690;2024-03-25T13:37:21;6.07;;;2.50;;
19341;SDS011;9807;48.258;12.690;2024-03-25T13:39:46;7.80;;;2.63;;
19341;SDS011;9807;48.258;12.690;2024-03-25T13:42:13;6.30;;;2.20;;
19341;SDS011;9807;48.258;12.690;2024-03-25T13:44:39;3.47;;;1.80;;
19341;SDS011;9807;48.258;12.690;2024-03-25T13:47:05;4.77;;;2.20;;
19341;SDS011;9807;48.258;12.690;2024-03-25T13:49:33;5.10;;;1.93;;
19341;SDS011;9807;48.258;12.690;2024-03-25T13:51:59;6.50;;;2.20;;
19341;SDS011;9807;48.258;12.690;2024-03-25T13:54:26;13.10;;;3.17;;
19341;SDS011;9807;48.258;12.690;2024-03-25T13:56:52;4.40;;;2.10;;
19341;SDS011;9807;48.258;12.690;2024-03-25T13:59:18;4.20;;;2.20;;
19341;SDS011;9807;48.258;12.690;2024-03-25T14:01:44;4.57;;;2.53;;
19341;SDS011;9807;48.258;12.690;2024-03-25T14:04:10;2.43;;;1.70;;
19341;SDS011;9807;48.258;12.690;2024-03-25T14:06:36;3.00;;;2.00;;
19341;SDS011;9807;48.258;12.690;2024-03-25T14:09:02;4.67;;;2.10;;
19341;SDS011;9807;48.258;12.690;2024-03-25T14:11:35;5.80;;;2.03;;
19341;SDS011;9807;48.258;12.690;2024-03-25T14:14:01;4.40;;;2.23;;
19341;SDS011;9807;48.258;12.690;2024-03-25T14:16:28;4.07;;;1.90;;
19341;SDS011;9807;48.258;12.690;2024-03-25T14:18:54;3.53;;;1.93;;
19341;SDS011;9807;48.258;12.690;2024-03-25T14:21:23;3.47;;;1.73;;
19341;SDS011;9807;48.258;12.690;2024-03-25T14:23:48;2.67;;;1.70;;
19341;SDS011;9807;48.258;12.690;2024-03-25T14:26:14;3.87;;;1.97;;
19341;SDS011;9807;48.258;12.690;2024-03-25T14:28:40;6.23;;;2.10;;
19341;SDS011;9807;48.258;12.690;2024-03-25T14:31:06;2.60;;;1.50;;
19341;SDS011;9807;48.258;12.690;2024-03-25T14:33:32;6.47;;;1.70;;
19341;SDS011;9807;48.258;12.690;2024-03-25T14:35:57;4.60;;;1.77;;
19341;SDS011;9807;48.258;12.690;2024-03-25T14:38:23;6.97;;;1.80;;
19341;SDS011;9807;48.258;12.690;2024-03-25T14:40:49;5.70;;;1.90;;
19341;SDS011;9807;48.258;12.690;2024-03-25T14:43:14;4.17;;;1.70;;
19341;SDS011;9807;48.258;12.690;2024-03-25T14:45:44;4.00;;;1.50;;
19341;SDS011;9807;48.258;12.690;2024-03-25T14:48:10;3.47;;;1.90;;
19341;SDS011;9807;48.258;12.690;2024-03-25T14:50:36;3.33;;;1.70;;
19341;SDS011;9807;48.258;12.690;2024-03-25T14:53:02;3.93;;;1.70;;
19341;SDS011;9807;48.258;12.690;2024-03-25T14:55:28;3.17;;;1.83;;